createdAt,value
2019-03-20T00:01:08.202Z,5.20
2019-03-20T00:03:37.191Z,5.10
2019-03-20T00:06:06.147Z,5.20
2019-03-20T00:08:35.097Z,5.10
2019-03-20T00:11:03.912Z,5.10
2019-03-20T00:13:32.765Z,5.10
2019-03-20T00:16:01.674Z,5.20
2019-03-20T00:18:30.950Z,5.10
2019-03-20T00:20:59.915Z,5.10
2019-03-20T00:23:29.788Z,5.20
2019-03-20T00:25:58.611Z,5.10
2019-03-20T00:28:27.531Z,5.10
2019-03-20T00:30:56.428Z,5.10
2019-03-20T00:33:25.413Z,5.10
2019-03-20T00:35:54.453Z,5.10
2019-03-20T00:38:24.079Z,5.10
2019-03-20T00:40:52.946Z,5.10
2019-03-20T00:43:21.795Z,5.00
2019-03-20T00:45:50.559Z,5.10
2019-03-20T00:48:20.045Z,5.10
2019-03-20T00:50:48.883Z,5.10
2019-03-20T00:53:17.626Z,5.10
2019-03-20T00:55:46.534Z,5.00
2019-03-20T00:58:15.459Z,5.00
2019-03-20T01:00:44.227Z,5.00
2019-03-20T01:03:13.202Z,5.00
2019-03-20T01:05:42.259Z,5.00
2019-03-20T01:08:11.099Z,5.00
2019-03-20T01:10:40.261Z,5.10
2019-03-20T01:13:09.382Z,5.10
2019-03-20T01:15:38.339Z,5.10
2019-03-20T01:18:07.092Z,5.10
2019-03-20T01:20:35.994Z,5.10
2019-03-20T01:23:05.152Z,5.10
2019-03-20T01:25:35.138Z,5.10
2019-03-20T01:28:04.970Z,5.10
2019-03-20T01:30:35.249Z,5.10
2019-03-20T01:33:05.964Z,5.00
2019-03-20T01:35:35.146Z,5.00
2019-03-20T01:38:04.008Z,5.00
2019-03-20T01:40:32.900Z,4.90
2019-03-20T01:43:02.121Z,4.90
2019-03-20T01:45:30.930Z,4.90
2019-03-20T01:47:59.856Z,4.90
2019-03-20T01:50:28.892Z,4.90
2019-03-20T01:52:58.076Z,4.80
2019-03-20T01:55:26.951Z,4.70
2019-03-20T01:57:56.264Z,4.70
2019-03-20T02:00:25.336Z,4.70
2019-03-20T02:02:54.065Z,4.70
2019-03-20T02:05:23.236Z,4.70
2019-03-20T02:07:52.629Z,4.70
2019-03-20T02:10:21.518Z,4.60
2019-03-20T02:12:50.331Z,4.60
2019-03-20T02:15:19.383Z,4.50
2019-03-20T02:17:48.376Z,4.40
2019-03-20T02:20:17.609Z,4.40
2019-03-20T02:22:46.788Z,4.40
2019-03-20T02:25:17.055Z,4.40
2019-03-20T02:27:46.250Z,4.40
2019-03-20T02:30:16.527Z,4.40
2019-03-20T02:32:45.666Z,4.30
2019-03-20T02:35:15.401Z,4.30
2019-03-20T02:37:44.279Z,4.30
2019-03-20T02:40:13.428Z,4.20
2019-03-20T02:42:42.313Z,4.10
2019-03-20T02:45:13.177Z,4.10
2019-03-20T02:47:42.296Z,4.20
2019-03-20T02:50:11.600Z,4.00
2019-03-20T02:52:40.617Z,3.90
2019-03-20T02:55:10.037Z,4.10
2019-03-20T02:57:39.084Z,3.90
2019-03-20T03:00:10.272Z,3.80
2019-03-20T03:02:39.201Z,3.60
2019-03-20T03:05:08.700Z,3.50
2019-03-20T03:07:37.633Z,3.50
2019-03-20T03:10:07.307Z,3.40
2019-03-20T03:12:36.213Z,3.40
2019-03-20T03:15:06.012Z,3.50
2019-03-20T03:17:34.919Z,3.40
2019-03-20T03:20:04.383Z,3.40
2019-03-20T03:22:33.304Z,3.40
2019-03-20T03:25:02.125Z,3.50
2019-03-20T03:27:31.360Z,3.50
2019-03-20T03:30:00.568Z,3.50
2019-03-20T03:32:29.738Z,3.50
2019-03-20T03:34:58.957Z,3.40
2019-03-20T03:37:27.877Z,3.40
2019-03-20T03:39:56.684Z,3.20
2019-03-20T03:42:25.916Z,3.00
2019-03-20T03:44:54.702Z,2.90
2019-03-20T03:47:23.610Z,2.90
2019-03-20T03:49:52.602Z,3.00
2019-03-20T03:52:21.440Z,3.00
2019-03-20T03:54:50.268Z,2.90
2019-03-20T03:57:19.280Z,2.90
2019-03-20T03:59:49.231Z,2.90
2019-03-20T04:02:18.126Z,2.90
2019-03-20T04:04:47.140Z,2.90
2019-03-20T04:07:16.304Z,3.10
2019-03-20T04:09:45.132Z,3.00
2019-03-20T04:12:14.005Z,2.60
2019-03-20T04:14:42.862Z,2.50
2019-03-20T04:17:27.435Z,2.50
2019-03-20T04:19:56.269Z,2.40
2019-03-20T04:22:25.198Z,2.40
2019-03-20T04:24:53.972Z,2.40
2019-03-20T04:27:22.898Z,2.40
2019-03-20T04:29:52.048Z,2.50
2019-03-20T04:32:21.730Z,2.50
2019-03-20T04:34:50.551Z,2.40
2019-03-20T04:37:19.429Z,2.40
2019-03-20T04:39:48.347Z,2.40
2019-03-20T04:42:17.159Z,2.40
2019-03-20T04:44:45.903Z,2.60
2019-03-20T04:47:14.795Z,2.50
2019-03-20T04:49:43.627Z,2.60
2019-03-20T04:52:12.384Z,2.60
2019-03-20T04:54:41.174Z,2.80
2019-03-20T04:57:10.008Z,2.60
2019-03-20T04:59:38.832Z,2.60
2019-03-20T05:02:07.651Z,2.60
2019-03-20T05:04:36.452Z,2.50
2019-03-20T05:07:05.742Z,2.40
2019-03-20T05:09:34.495Z,2.40
2019-03-20T05:12:03.586Z,2.30
2019-03-20T05:14:32.964Z,2.30
2019-03-20T05:17:01.948Z,2.40
2019-03-20T05:19:31.288Z,2.40
2019-03-20T05:22:00.139Z,2.40
2019-03-20T05:24:28.874Z,2.40
2019-03-20T05:26:57.939Z,2.30
2019-03-20T05:29:26.683Z,2.20
2019-03-20T05:31:55.770Z,2.40
2019-03-20T05:34:24.543Z,2.40
2019-03-20T05:36:53.459Z,2.40
2019-03-20T05:39:22.321Z,2.30
2019-03-20T05:41:51.533Z,2.50
2019-03-20T05:44:20.736Z,2.50
2019-03-20T05:46:50.056Z,2.50
2019-03-20T05:49:18.828Z,2.40
2019-03-20T05:51:47.643Z,2.30
2019-03-20T05:54:16.621Z,2.40
2019-03-20T05:57:04.761Z,2.40
2019-03-20T05:59:33.669Z,2.50
2019-03-20T06:02:02.572Z,2.40
2019-03-20T06:04:31.485Z,2.50
2019-03-20T06:07:00.412Z,2.50
2019-03-20T06:09:29.579Z,2.60
2019-03-20T06:11:58.465Z,2.50
2019-03-20T06:14:27.299Z,2.70
2019-03-20T06:16:56.210Z,2.80
2019-03-20T06:19:25.015Z,3.00
2019-03-20T06:21:53.964Z,3.10
2019-03-20T06:24:22.859Z,3.40
2019-03-20T06:26:51.772Z,3.40
2019-03-20T06:29:20.547Z,3.40
2019-03-20T06:31:50.381Z,3.50
2019-03-20T06:34:19.363Z,3.50
2019-03-20T06:36:48.188Z,3.60
2019-03-20T06:39:17.019Z,3.60
2019-03-20T06:41:46.371Z,3.60
2019-03-20T06:44:15.218Z,3.60
2019-03-20T06:46:44.049Z,3.70
2019-03-20T06:49:13.277Z,3.70
2019-03-20T06:51:42.440Z,3.90
2019-03-20T06:54:11.457Z,4.00
2019-03-20T06:56:40.275Z,4.20
2019-03-20T06:59:50.317Z,4.10
2019-03-20T07:02:20.626Z,4.10
2019-03-20T07:05:30.144Z,4.30
2019-03-20T07:07:58.697Z,4.40
2019-03-20T07:11:04.941Z,4.50
2019-03-20T07:13:34.443Z,4.60
2019-03-20T07:16:03.929Z,4.70
2019-03-20T07:18:32.893Z,4.80
2019-03-20T07:21:02.297Z,5.10
2019-03-20T07:23:31.359Z,5.00
2019-03-20T07:26:00.229Z,5.10
2019-03-20T07:28:29.120Z,5.30
2019-03-20T07:30:57.961Z,5.70
2019-03-20T07:33:27.220Z,5.80
2019-03-20T07:35:56.116Z,6.10
2019-03-20T07:38:25.283Z,6.40
2019-03-20T07:40:54.415Z,6.30
2019-03-20T07:43:23.254Z,6.10
2019-03-20T07:45:52.488Z,6.00
2019-03-20T07:48:22.595Z,6.00
2019-03-20T07:50:52.029Z,5.90
2019-03-20T07:53:20.946Z,6.10
2019-03-20T07:55:50.127Z,6.30
2019-03-20T07:58:19.468Z,6.30
2019-03-20T08:00:49.028Z,6.50
2019-03-20T08:03:18.979Z,6.60
2019-03-20T08:05:48.902Z,6.50
2019-03-20T08:08:17.714Z,6.90
2019-03-20T08:10:47.142Z,7.00
2019-03-20T08:13:16.506Z,7.10
2019-03-20T08:15:45.651Z,7.30
2019-03-20T08:18:14.905Z,7.70
2019-03-20T08:20:43.707Z,8.00
2019-03-20T08:23:12.679Z,8.20
2019-03-20T08:25:41.472Z,8.10
2019-03-20T08:28:10.551Z,8.50
2019-03-20T08:30:39.808Z,8.70
2019-03-20T08:33:08.750Z,8.70
2019-03-20T08:35:37.872Z,9.30
2019-03-20T08:38:17.446Z,10.50
2019-03-20T08:40:37.948Z,11.30
2019-03-20T08:43:06.891Z,11.30
2019-03-20T08:45:35.966Z,11.60
2019-03-20T08:48:05.197Z,12.30
2019-03-20T08:50:34.060Z,12.70
2019-03-20T08:53:02.857Z,12.60
2019-03-20T08:55:31.768Z,12.00
2019-03-20T08:58:00.633Z,12.70
2019-03-20T09:00:29.743Z,13.40
2019-03-20T09:02:58.499Z,13.50
2019-03-20T09:05:27.753Z,13.50
2019-03-20T09:07:56.731Z,14.40
2019-03-20T09:10:25.986Z,13.70
2019-03-20T09:12:55.179Z,14.30
2019-03-20T09:15:24.936Z,13.40
2019-03-20T09:17:53.766Z,14.10
2019-03-20T09:20:22.800Z,14.50
2019-03-20T09:22:51.811Z,15.00
2019-03-20T09:25:20.615Z,14.80
2019-03-20T09:27:49.698Z,14.90
2019-03-20T09:30:19.901Z,15.20
2019-03-20T09:32:48.695Z,15.60
2019-03-20T09:35:17.564Z,14.40
2019-03-20T09:37:51.833Z,15.60
2019-03-20T09:40:17.514Z,15.20
2019-03-20T09:42:46.510Z,15.30
2019-03-20T09:45:16.153Z,15.50
2019-03-20T09:47:45.012Z,16.00
2019-03-20T09:50:15.790Z,16.50
2019-03-20T09:52:44.736Z,16.00
2019-03-20T09:55:14.596Z,16.00
2019-03-20T09:57:43.944Z,16.10
2019-03-20T10:00:23.125Z,16.70
2019-03-20T10:02:52.224Z,15.40
2019-03-20T10:05:21.358Z,16.30
2019-03-20T10:07:50.228Z,16.40
2019-03-20T10:10:20.593Z,16.40
2019-03-20T10:12:49.604Z,16.40
2019-03-20T10:15:19.434Z,16.10
2019-03-20T10:17:48.352Z,16.40
2019-03-20T10:20:18.710Z,15.70
2019-03-20T10:22:47.609Z,15.40
2019-03-20T10:25:17.166Z,16.40
2019-03-20T10:27:46.140Z,16.00
2019-03-20T10:30:17.355Z,15.20
2019-03-20T10:32:46.215Z,17.30
2019-03-20T10:35:15.283Z,17.20
2019-03-20T10:37:44.870Z,17.10
2019-03-20T10:40:15.765Z,17.40
2019-03-20T10:42:44.624Z,17.80
2019-03-20T10:45:14.012Z,17.20
2019-03-20T10:47:43.184Z,16.40
2019-03-20T10:50:14.327Z,17.20
2019-03-20T10:52:49.526Z,17.70
2019-03-20T10:55:20.526Z,18.30
2019-03-20T10:57:49.600Z,18.50
2019-03-20T11:00:19.568Z,18.00
2019-03-20T11:02:48.522Z,18.00
2019-03-20T11:05:18.765Z,18.30
2019-03-20T11:07:47.723Z,17.90
2019-03-20T11:10:20.294Z,18.60
2019-03-20T11:12:51.574Z,18.90
2019-03-20T11:15:20.756Z,17.80
2019-03-20T11:17:49.770Z,18.20
2019-03-20T11:20:18.881Z,17.80
2019-03-20T11:22:48.247Z,18.60
2019-03-20T11:25:18.390Z,18.60
2019-03-20T11:27:48.919Z,17.70
2019-03-20T11:30:22.315Z,18.10
2019-03-20T11:32:51.508Z,18.80
2019-03-20T11:35:20.762Z,18.30
2019-03-20T11:37:49.579Z,18.70
2019-03-20T11:40:20.696Z,18.90
2019-03-20T11:42:49.920Z,18.40
2019-03-20T11:45:18.915Z,19.10
2019-03-20T11:47:47.710Z,19.20
2019-03-20T11:50:19.682Z,19.10
2019-03-20T11:52:49.221Z,19.20
2019-03-20T11:55:18.077Z,19.70
2019-03-20T11:57:47.315Z,19.50
2019-03-20T12:00:17.215Z,19.30
2019-03-20T12:02:46.061Z,19.40
2019-03-20T12:05:15.289Z,19.90
2019-03-20T12:07:44.019Z,19.70
2019-03-20T12:10:15.845Z,19.90
2019-03-20T12:12:45.171Z,19.70
2019-03-20T12:15:14.301Z,19.60
2019-03-20T12:17:43.194Z,19.30
2019-03-20T12:20:15.118Z,19.80
2019-03-20T12:22:44.354Z,20.10
2019-03-20T12:25:21.303Z,20.10
2019-03-20T12:27:50.393Z,20.20
2019-03-20T12:30:21.060Z,20.10
2019-03-20T12:32:50.881Z,19.70
2019-03-20T12:35:19.887Z,19.40
2019-03-20T12:37:48.819Z,19.20
2019-03-20T12:40:25.581Z,18.70
2019-03-20T12:42:54.884Z,17.40
2019-03-20T12:45:26.201Z,18.60
2019-03-20T12:47:55.334Z,20.00
2019-03-20T12:50:24.631Z,20.40
2019-03-20T12:52:53.561Z,19.40
2019-03-20T12:55:22.589Z,19.70
2019-03-20T12:57:51.453Z,19.50
2019-03-20T13:00:21.383Z,19.70
2019-03-20T13:02:50.948Z,20.00
2019-03-20T13:05:20.179Z,19.50
2019-03-20T13:07:49.150Z,19.50
2019-03-20T13:10:19.202Z,19.10
2019-03-20T13:12:48.369Z,19.10
2019-03-20T13:15:22.016Z,19.90
2019-03-20T13:17:52.542Z,19.90
2019-03-20T13:20:21.731Z,20.00
2019-03-20T13:23:00.973Z,19.90
2019-03-20T13:25:30.478Z,19.90
2019-03-20T13:27:59.762Z,19.90
2019-03-20T13:30:40.922Z,20.00
2019-03-20T13:33:09.868Z,19.50
2019-03-20T13:35:38.864Z,20.10
2019-03-20T13:38:07.763Z,20.60
2019-03-20T13:40:36.729Z,19.90
2019-03-20T13:43:06.131Z,19.70
2019-03-20T13:45:35.043Z,19.70
2019-03-20T13:48:04.252Z,19.60
2019-03-20T13:50:33.216Z,19.50
2019-03-20T13:53:02.248Z,19.70
2019-03-20T13:55:31.566Z,19.40
2019-03-20T13:58:00.367Z,19.70
2019-03-20T14:00:29.107Z,19.30
2019-03-20T14:02:58.531Z,19.10
2019-03-20T14:05:27.611Z,19.00
2019-03-20T14:07:56.472Z,18.40
2019-03-20T14:10:25.912Z,18.70
2019-03-20T14:12:54.728Z,18.70
2019-03-20T14:15:23.708Z,17.70
2019-03-20T14:17:52.695Z,18.60
2019-03-20T14:20:22.970Z,18.50
2019-03-20T14:22:51.759Z,19.00
2019-03-20T14:25:20.792Z,19.10
2019-03-20T14:27:50.003Z,19.00
2019-03-20T14:30:21.231Z,19.00
2019-03-20T14:32:50.456Z,19.00
2019-03-20T14:35:20.040Z,18.80
2019-03-20T14:37:48.759Z,18.70
2019-03-20T14:40:19.450Z,18.30
2019-03-20T14:42:48.423Z,18.10
2019-03-20T14:45:17.309Z,18.00
2019-03-20T14:47:46.511Z,17.50
2019-03-20T14:50:17.380Z,18.00
2019-03-20T14:52:46.180Z,17.60
2019-03-20T14:55:15.169Z,18.00
2019-03-20T14:57:43.989Z,18.10
2019-03-20T15:00:32.373Z,18.30
2019-03-20T15:03:01.949Z,17.80
2019-03-20T15:05:31.802Z,17.20
2019-03-20T15:08:00.666Z,17.70
2019-03-20T15:10:30.610Z,17.50
2019-03-20T15:12:59.408Z,17.80
2019-03-20T15:15:50.257Z,17.00
2019-03-20T15:18:20.139Z,17.40
2019-03-20T15:20:49.056Z,17.30
2019-03-20T15:23:17.987Z,16.90
2019-03-20T15:25:47.025Z,17.20
2019-03-20T15:28:17.139Z,17.10
2019-03-20T15:30:47.483Z,17.50
2019-03-20T15:33:16.620Z,17.00
2019-03-20T15:35:51.295Z,16.60
2019-03-20T15:38:21.043Z,16.60
2019-03-20T15:40:56.383Z,16.30
2019-03-20T15:43:23.513Z,16.00
2019-03-20T15:45:52.590Z,16.10
2019-03-20T15:48:21.358Z,15.80
2019-03-20T15:50:50.225Z,15.50
2019-03-20T15:53:20.011Z,15.40
2019-03-20T15:55:48.956Z,15.20
2019-03-20T15:58:17.733Z,15.20
2019-03-20T16:00:46.752Z,15.30
2019-03-20T16:03:16.806Z,15.10
2019-03-20T16:05:45.695Z,14.80
2019-03-20T16:08:15.534Z,14.70
2019-03-20T16:10:44.439Z,14.40
2019-03-20T16:13:13.516Z,14.30
2019-03-20T16:15:42.287Z,14.40
2019-03-20T16:18:11.839Z,14.40
2019-03-20T16:20:41.159Z,14.20
2019-03-20T16:23:11.339Z,13.80
2019-03-20T16:25:40.536Z,13.60
2019-03-20T16:28:09.484Z,13.60
2019-03-20T16:30:38.837Z,13.30
2019-03-20T16:33:07.771Z,13.40
2019-03-20T16:35:36.893Z,13.30
2019-03-20T16:38:07.065Z,13.40
2019-03-20T16:40:36.524Z,13.30
2019-03-20T16:43:05.774Z,13.30
2019-03-20T16:45:34.842Z,13.30
2019-03-20T16:48:04.286Z,13.10
2019-03-20T16:50:33.149Z,12.90
2019-03-20T16:53:02.600Z,12.60
2019-03-20T16:55:31.504Z,12.40
2019-03-20T16:58:00.459Z,12.20
2019-03-20T17:00:29.564Z,12.00
2019-03-20T17:02:58.531Z,11.80
2019-03-20T17:05:28.435Z,11.80
2019-03-20T17:07:57.331Z,11.60
2019-03-20T17:10:31.403Z,11.40
2019-03-20T17:13:00.227Z,11.20
2019-03-20T17:15:29.750Z,11.00
2019-03-20T17:17:58.668Z,10.80
2019-03-20T17:20:27.778Z,10.60
2019-03-20T17:22:56.790Z,10.60
2019-03-20T17:25:25.725Z,10.50
2019-03-20T17:27:54.640Z,10.40
2019-03-20T17:30:25.729Z,10.30
2019-03-20T17:32:54.962Z,10.30
2019-03-20T17:35:23.996Z,10.10
2019-03-20T17:37:53.093Z,10.00
2019-03-20T17:40:21.903Z,10.00
2019-03-20T17:42:51.088Z,10.00
2019-03-20T17:45:20.556Z,9.90
2019-03-20T17:47:49.847Z,9.90
2019-03-20T17:50:21.048Z,10.00
2019-03-20T17:52:50.454Z,10.30
2019-03-20T17:55:20.301Z,10.10
2019-03-20T17:57:49.565Z,10.00
2019-03-20T18:00:34.434Z,9.80
2019-03-20T18:03:03.282Z,9.80
2019-03-20T18:05:32.264Z,9.60
2019-03-20T18:08:01.036Z,9.40
2019-03-20T18:10:29.810Z,9.20
2019-03-20T18:12:59.004Z,9.10
2019-03-20T18:15:27.900Z,9.00
2019-03-20T18:17:57.105Z,8.90
2019-03-20T18:20:25.969Z,8.90
2019-03-20T18:22:54.935Z,8.90
2019-03-20T18:25:24.734Z,8.80
2019-03-20T18:27:53.621Z,8.80
2019-03-20T18:30:23.294Z,8.80
2019-03-20T18:32:52.336Z,8.80
2019-03-20T18:35:21.120Z,8.90
2019-03-20T18:37:50.435Z,8.90
2019-03-20T18:40:21.333Z,8.80
2019-03-20T18:42:50.643Z,8.60
2019-03-20T18:45:20.054Z,8.40
2019-03-20T18:47:49.036Z,8.20
2019-03-20T18:50:18.741Z,8.30
2019-03-20T18:52:48.056Z,8.20
2019-03-20T18:55:17.907Z,8.20
2019-03-20T18:57:46.847Z,8.20
2019-03-20T19:00:20.917Z,8.20
2019-03-20T19:02:50.601Z,8.10
2019-03-20T19:05:25.729Z,8.00
2019-03-20T19:07:54.647Z,8.10
2019-03-20T19:10:23.533Z,8.00
2019-03-20T19:12:52.350Z,7.90
2019-03-20T19:15:21.155Z,7.60
2019-03-20T19:17:50.019Z,7.60
2019-03-20T19:20:20.035Z,7.40
2019-03-20T19:22:49.012Z,7.40
2019-03-20T19:25:17.945Z,7.30
2019-03-20T19:27:47.647Z,7.20
2019-03-20T19:30:18.614Z,7.20
2019-03-20T19:32:47.387Z,7.10
2019-03-20T19:35:16.446Z,7.10
2019-03-20T19:37:45.276Z,7.20
2019-03-20T19:40:14.893Z,7.10
2019-03-20T19:42:43.650Z,7.20
2019-03-20T19:45:12.727Z,7.10
2019-03-20T19:47:42.128Z,7.10
2019-03-20T19:50:12.632Z,7.10
2019-03-20T19:52:41.824Z,7.00
2019-03-20T19:55:11.231Z,6.90
2019-03-20T19:57:40.127Z,6.90
2019-03-20T20:00:12.344Z,6.80
2019-03-20T20:02:41.253Z,6.80
2019-03-20T20:05:15.611Z,6.70
2019-03-20T20:07:41.362Z,6.60
2019-03-20T20:10:11.639Z,6.50
2019-03-20T20:12:40.423Z,6.40
2019-03-20T20:15:13.244Z,6.20
2019-03-20T20:17:42.463Z,6.20
2019-03-20T20:20:13.256Z,6.10
2019-03-20T20:22:42.142Z,6.10
2019-03-20T20:25:11.108Z,6.10
2019-03-20T20:27:40.183Z,6.10
2019-03-20T20:30:12.340Z,6.10
2019-03-20T20:32:41.128Z,6.20
2019-03-20T20:35:10.104Z,6.20
2019-03-20T20:37:38.928Z,6.30
2019-03-20T20:40:09.046Z,6.30
2019-03-20T20:42:42.852Z,6.30
2019-03-20T20:45:08.860Z,6.30
2019-03-20T20:47:37.699Z,6.40
2019-03-20T20:50:06.943Z,6.40
2019-03-20T20:52:36.703Z,6.30
2019-03-20T20:55:06.533Z,6.30
2019-03-20T20:57:35.476Z,6.30
2019-03-20T21:00:06.403Z,6.30
2019-03-20T21:02:35.587Z,6.30
2019-03-20T21:05:05.191Z,6.30
2019-03-20T21:07:33.999Z,6.30
2019-03-20T21:10:03.074Z,6.40
2019-03-20T21:12:31.940Z,6.40
2019-03-20T21:15:00.782Z,6.20
2019-03-20T21:17:42.855Z,6.30
2019-03-20T21:20:12.262Z,6.30
2019-03-20T21:23:27.725Z,6.20
2019-03-20T21:25:59.010Z,6.10
2019-03-20T21:29:17.351Z,5.90
2019-03-20T21:32:06.702Z,5.70
2019-03-20T21:35:24.027Z,5.60
2019-03-20T21:38:04.308Z,5.50
2019-03-20T21:41:12.580Z,5.40
2019-03-20T21:44:15.578Z,5.40
2019-03-20T21:47:23.355Z,5.40
2019-03-20T21:49:52.776Z,5.60
2019-03-20T21:52:22.212Z,5.40
2019-03-20T21:55:28.499Z,5.30
2019-03-20T21:58:03.398Z,5.30
2019-03-20T22:01:09.668Z,5.20
2019-03-20T22:03:39.320Z,5.20
2019-03-20T22:06:54.842Z,5.20
2019-03-20T22:09:46.506Z,5.10
2019-03-20T22:12:29.032Z,5.00
2019-03-20T22:15:09.377Z,5.00
2019-03-20T22:18:32.761Z,5.10
2019-03-20T22:21:11.858Z,5.00
2019-03-20T22:24:16.087Z,4.90
2019-03-20T22:27:08.239Z,4.80
2019-03-20T22:29:37.612Z,4.80
2019-03-20T22:32:51.162Z,4.80
2019-03-20T22:35:49.376Z,4.70
2019-03-20T22:39:15.466Z,4.70
2019-03-20T22:42:10.148Z,4.70
2019-03-20T22:45:10.187Z,4.70
2019-03-20T22:48:22.443Z,4.70
2019-03-20T22:51:04.083Z,4.70
2019-03-20T22:54:11.081Z,4.60
2019-03-20T22:57:04.306Z,4.60
2019-03-20T22:59:33.930Z,4.50
2019-03-20T23:02:14.255Z,4.50
2019-03-20T23:04:46.876Z,4.50
2019-03-20T23:07:16.201Z,4.40
2019-03-20T23:09:45.613Z,4.40
2019-03-20T23:12:17.879Z,4.60
2019-03-20T23:14:47.319Z,4.60
2019-03-20T23:17:17.246Z,4.60
2019-03-20T23:19:47.186Z,4.60
2019-03-20T23:22:16.551Z,4.50
2019-03-20T23:24:46.911Z,4.40
2019-03-20T23:27:22.790Z,4.40
2019-03-20T23:29:52.551Z,4.40
2019-03-20T23:32:22.172Z,4.50
2019-03-20T23:34:51.982Z,4.50
2019-03-20T23:37:21.384Z,4.60
2019-03-20T23:39:50.685Z,4.60
2019-03-20T23:42:20.725Z,4.60
2019-03-20T23:44:50.305Z,4.60
2019-03-20T23:47:25.563Z,4.60
2019-03-20T23:49:54.811Z,4.60
2019-03-20T23:52:24.292Z,4.70
2019-03-20T23:54:55.407Z,4.60
2019-03-20T23:57:24.755Z,4.70
2019-03-20T23:59:55.496Z,4.70
